Wishon, California
Current Conditions -  °F | °C
As of 5:53 AM on Monday 20 Oct 2014 (Local Time) from KFAT Reporting Station
Clear Clear  
Wind Chill: 59°   Ceiling: Unl
Heat Index: 59°   Visibility: 10mi
Dew Point: 49°   Wind: 0mph
Humidity: 69%   Direction: NA
Pressure: 29.9"   Gusts: NA
Location:  37.27°N, 119.54°W
Report Text: KFAT 201253Z 00000KT 10SM CLR 15/09 A2990 RMK AO2 SLP122 T01500094
Loading
Personal Weather Stations






























Interactive Weather Map
Tropical Storm Tracking
New forecast layout! Learn more

10-Day Weather Forecast

Advertisements
Track Severe Weather on mobile